createdAt,value
2023-06-20T00:01:04.066Z,13.30
2023-06-20T00:06:07.609Z,13.35
2023-06-20T00:11:10.984Z,23.20
2023-06-20T00:16:22.063Z,26.60
2023-06-20T00:21:27.202Z,23.95
2023-06-20T00:26:30.847Z,27.45
2023-06-20T00:31:35.574Z,18.92
2023-06-20T00:36:39.855Z,24.40
2023-06-20T00:41:43.122Z,26.05
2023-06-20T00:46:47.823Z,19.70
2023-06-20T00:51:52.182Z,19.35
2023-06-20T00:56:56.072Z,16.93
2023-06-20T01:02:00.739Z,16.50
2023-06-20T01:07:13.853Z,16.85
2023-06-20T01:12:22.484Z,16.40
2023-06-20T01:17:33.385Z,16.00
2023-06-20T01:22:47.704Z,15.07
2023-06-20T01:27:58.001Z,14.80
2023-06-20T01:33:05.281Z,13.20
2023-06-20T01:38:11.746Z,13.13
2023-06-20T01:43:19.131Z,13.38
2023-06-20T01:48:27.239Z,13.38
2023-06-20T01:53:34.492Z,13.77
2023-06-20T01:58:41.910Z,13.13
2023-06-20T02:03:45.900Z,13.77
2023-06-20T02:08:51.577Z,13.55
2023-06-20T02:13:56.819Z,12.37
2023-06-20T02:19:00.127Z,13.63
2023-06-20T02:24:08.061Z,13.10
2023-06-20T02:29:12.948Z,12.85
2023-06-20T02:34:19.846Z,14.20
2023-06-20T02:39:25.946Z,13.65
2023-06-20T02:44:29.468Z,14.32
2023-06-20T02:49:41.517Z,14.90
2023-06-20T02:54:50.748Z,15.07
2023-06-20T03:00:01.162Z,15.20
2023-06-20T03:05:09.030Z,15.50
2023-06-20T03:10:14.843Z,14.80
2023-06-20T03:15:18.143Z,14.20
2023-06-20T03:20:21.754Z,13.82
2023-06-20T03:25:26.867Z,14.18
2023-06-20T03:30:30.433Z,14.93
2023-06-20T03:35:34.053Z,15.15
2023-06-20T03:40:38.796Z,14.65
2023-06-20T03:45:42.210Z,15.00
2023-06-20T03:50:45.620Z,16.05
2023-06-20T03:55:52.152Z,16.00
2023-06-20T04:00:55.627Z,13.52
2023-06-20T04:06:02.458Z,13.15
2023-06-20T04:11:07.463Z,12.88
2023-06-20T04:16:10.779Z,13.52
2023-06-20T04:21:14.299Z,13.82
2023-06-20T04:26:20.145Z,12.73
2023-06-20T04:31:23.766Z,12.73
2023-06-20T04:36:28.232Z,12.75
2023-06-20T04:41:35.253Z,12.35
2023-06-20T04:46:39.802Z,13.50
2023-06-20T04:51:43.487Z,13.63
2023-06-20T04:56:48.253Z,14.27
2023-06-20T05:01:52.515Z,13.85
2023-06-20T05:06:56.342Z,13.88
2023-06-20T05:12:05.195Z,15.23
2023-06-20T05:17:09.008Z,15.83
2023-06-20T05:22:12.296Z,14.30
2023-06-20T05:27:16.971Z,14.75
2023-06-20T05:32:20.383Z,14.27
2023-06-20T05:37:23.739Z,15.53
2023-06-20T05:42:28.445Z,15.45
2023-06-20T05:47:31.716Z,16.20
2023-06-20T05:52:37.144Z,15.52
2023-06-20T05:57:41.838Z,14.50
2023-06-20T06:02:46.542Z,16.00
2023-06-20T06:07:50.417Z,16.17
2023-06-20T06:12:55.097Z,15.33
2023-06-20T06:17:58.467Z,15.20
2023-06-20T06:23:01.835Z,14.20
2023-06-20T06:28:06.618Z,15.53
2023-06-20T06:33:10.570Z,13.93
2023-06-20T06:38:14.325Z,14.00
2023-06-20T06:43:18.967Z,13.67
2023-06-20T06:48:26.263Z,13.95
2023-06-20T06:53:29.668Z,14.60
2023-06-20T06:58:34.296Z,14.18
2023-06-20T07:03:37.663Z,13.50
2023-06-20T07:08:40.933Z,13.40
2023-06-20T07:13:45.642Z,13.10
2023-06-20T07:18:48.947Z,12.82
2023-06-20T07:23:52.236Z,13.03
2023-06-20T07:28:57.038Z,12.75
2023-06-20T07:34:00.385Z,12.13
2023-06-20T07:39:03.971Z,12.02
2023-06-20T07:44:12.077Z,10.33
2023-06-20T07:49:15.409Z,9.80
2023-06-20T07:54:18.962Z,10.20
2023-06-20T07:59:23.708Z,14.63
2023-06-20T08:04:27.193Z,11.30
2023-06-20T08:09:30.494Z,11.17
2023-06-20T08:14:35.121Z,10.48
2023-06-20T08:19:38.457Z,10.60
2023-06-20T08:24:41.808Z,9.68
2023-06-20T08:29:46.465Z,9.85
2023-06-20T08:34:53.539Z,9.95
2023-06-20T08:39:58.530Z,9.60
2023-06-20T08:45:03.995Z,9.13
2023-06-20T08:50:08.696Z,9.15
2023-06-20T08:55:12.977Z,8.43
2023-06-20T09:00:20.872Z,8.52
2023-06-20T09:05:24.407Z,8.25
2023-06-20T09:10:28.304Z,7.93
2023-06-20T09:15:34.763Z,7.50
2023-06-20T09:20:38.083Z,7.28
2023-06-20T09:25:42.010Z,7.20
2023-06-20T09:30:49.998Z,6.78
2023-06-20T09:35:53.490Z,7.30
2023-06-20T09:40:56.754Z,7.30
2023-06-20T09:46:01.665Z,7.35
2023-06-20T09:51:06.650Z,7.13
2023-06-20T09:56:12.671Z,7.05
2023-06-20T10:01:22.464Z,7.40
2023-06-20T10:06:26.566Z,7.00
2023-06-20T10:11:30.337Z,7.13
2023-06-20T10:16:35.681Z,6.70
2023-06-20T10:21:55.778Z,6.10
2023-06-20T10:27:02.247Z,6.80
2023-06-20T10:32:08.287Z,7.13
2023-06-20T10:37:17.240Z,5.60
2023-06-20T10:42:40.240Z,6.37
2023-06-20T10:47:44.999Z,7.30
2023-06-20T10:52:48.334Z,6.57
2023-06-20T10:57:52.779Z,6.07
2023-06-20T11:02:58.606Z,5.70
2023-06-20T11:08:05.915Z,5.90
2023-06-20T11:13:09.619Z,5.60
2023-06-20T11:18:14.419Z,5.82
2023-06-20T11:23:17.786Z,6.25
2023-06-20T11:28:21.298Z,6.40
2023-06-20T11:33:33.691Z,5.17
2023-06-20T11:38:41.349Z,5.30
2023-06-20T11:43:45.831Z,4.82
2023-06-20T11:48:54.922Z,4.95
2023-06-20T11:54:06.525Z,4.97
2023-06-20T11:59:11.469Z,5.20
2023-06-20T12:04:21.202Z,4.60
2023-06-20T12:09:25.110Z,4.75
2023-06-20T12:14:28.410Z,5.10
2023-06-20T12:19:33.537Z,4.22
2023-06-20T12:24:38.071Z,4.35
2023-06-20T12:29:41.411Z,4.07
2023-06-20T12:34:46.096Z,4.20
2023-06-20T12:39:49.633Z,5.45
2023-06-20T12:44:53.248Z,4.17
2023-06-20T12:49:57.981Z,3.70
2023-06-20T12:55:01.996Z,4.53
2023-06-20T13:00:07.121Z,3.88
2023-06-20T13:05:12.768Z,4.10
2023-06-20T13:10:17.840Z,3.83
2023-06-20T13:15:25.919Z,4.90
2023-06-20T13:20:30.962Z,3.73
2023-06-20T13:25:34.555Z,3.88
2023-06-20T13:30:38.118Z,5.10
2023-06-20T13:35:42.936Z,3.75
2023-06-20T13:40:46.818Z,4.20
2023-06-20T13:45:50.267Z,4.07
2023-06-20T13:50:54.968Z,3.85
2023-06-20T13:55:58.260Z,5.30
2023-06-20T14:01:01.641Z,4.93
2023-06-20T14:06:06.536Z,5.57
2023-06-20T14:11:09.980Z,4.15
2023-06-20T14:16:13.409Z,4.53
2023-06-20T14:21:19.521Z,5.60
2023-06-20T14:26:22.842Z,4.25
2023-06-20T14:31:26.260Z,4.93
2023-06-20T14:36:36.178Z,3.92
2023-06-20T14:41:39.509Z,4.65
2023-06-20T14:46:42.880Z,4.00
2023-06-20T14:51:47.614Z,4.93
2023-06-20T14:56:50.957Z,4.35
2023-06-20T15:01:54.590Z,5.38
2023-06-20T15:06:59.329Z,4.67
2023-06-20T15:12:02.874Z,4.38
2023-06-20T15:17:06.718Z,4.90
2023-06-20T15:22:11.532Z,5.60
2023-06-20T15:27:15.215Z,3.97
2023-06-20T15:32:18.515Z,5.20
2023-06-20T15:37:23.229Z,5.23
2023-06-20T15:42:26.647Z,5.38
2023-06-20T15:47:30.038Z,4.35
2023-06-20T15:52:34.790Z,5.30
2023-06-20T15:57:39.794Z,4.95
2023-06-20T16:02:43.536Z,6.18
2023-06-20T16:07:48.296Z,4.95
2023-06-20T16:12:51.744Z,4.87
2023-06-20T16:17:55.116Z,5.00
2023-06-20T16:23:00.439Z,6.70
2023-06-20T16:28:03.835Z,5.27
2023-06-20T16:33:08.253Z,8.15
2023-06-20T16:38:13.656Z,4.50
2023-06-20T16:43:17.484Z,6.07
2023-06-20T16:48:21.359Z,6.63
2023-06-20T16:53:26.201Z,6.20
2023-06-20T16:58:29.494Z,6.33
2023-06-20T17:03:32.917Z,5.80
2023-06-20T17:08:37.624Z,6.07
2023-06-20T17:13:41.839Z,6.07
2023-06-20T17:18:45.068Z,7.27
2023-06-20T17:23:49.853Z,7.03
2023-06-20T17:28:53.216Z,6.87
2023-06-20T17:33:56.604Z,6.00
2023-06-20T17:39:01.484Z,7.83
2023-06-20T17:44:04.814Z,6.00
2023-06-20T17:49:08.282Z,6.40
2023-06-20T17:54:12.934Z,6.77
2023-06-20T17:59:16.252Z,5.28
2023-06-20T18:04:19.537Z,5.00
2023-06-20T18:09:24.544Z,7.03
2023-06-20T18:14:28.025Z,6.40
2023-06-20T18:19:40.025Z,6.88
2023-06-20T18:24:51.689Z,4.65
2023-06-20T18:29:54.931Z,5.43
2023-06-20T18:34:58.204Z,5.97
2023-06-20T18:40:03.433Z,6.37
2023-06-20T18:45:07.856Z,5.13
2023-06-20T18:50:11.498Z,5.73
2023-06-20T18:55:16.183Z,8.15
2023-06-20T19:00:19.912Z,7.72
2023-06-20T19:05:23.396Z,6.43
2023-06-20T19:10:28.280Z,7.40
2023-06-20T19:15:32.386Z,5.40
2023-06-20T19:20:39.472Z,5.43
2023-06-20T19:25:44.247Z,6.37
2023-06-20T19:30:47.985Z,9.80
2023-06-20T19:35:51.326Z,6.03
2023-06-20T19:40:56.092Z,8.02
2023-06-20T19:45:59.484Z,6.97
2023-06-20T19:51:02.878Z,6.13
2023-06-20T19:56:08.609Z,7.65
2023-06-20T20:01:12.217Z,6.35
2023-06-20T20:06:15.992Z,6.50
2023-06-20T20:11:21.287Z,5.70
2023-06-20T20:16:24.759Z,7.03
2023-06-20T20:21:28.191Z,6.10
2023-06-20T20:26:33.303Z,9.40
2023-06-20T20:31:37.613Z,7.80
2023-06-20T20:36:41.313Z,5.97
2023-06-20T20:41:49.043Z,7.27
2023-06-20T20:46:52.366Z,6.80
2023-06-20T20:51:55.745Z,7.85
2023-06-20T20:57:00.700Z,6.88
2023-06-20T21:02:04.556Z,9.73
2023-06-20T21:07:09.431Z,10.48
2023-06-20T21:12:14.129Z,11.57
2023-06-20T21:17:17.686Z,15.30
2023-06-20T21:22:21.317Z,13.47
2023-06-20T21:27:26.109Z,14.63
2023-06-20T21:32:29.503Z,11.25
2023-06-20T21:37:33.186Z,9.40
2023-06-20T21:42:38.233Z,12.20
2023-06-20T21:47:41.700Z,11.52
2023-06-20T21:52:45.376Z,11.02
2023-06-20T21:57:50.166Z,11.27
2023-06-20T22:02:53.714Z,8.82
2023-06-20T22:07:57.093Z,11.15
2023-06-20T22:13:01.781Z,9.60
2023-06-20T22:18:05.545Z,12.27
2023-06-20T22:23:09.987Z,7.20
2023-06-20T22:28:14.751Z,37.03
2023-06-20T22:33:19.108Z,15.57
2023-06-20T22:38:22.414Z,14.10
2023-06-20T22:43:27.067Z,6.78
2023-06-20T22:48:30.430Z,9.07
2023-06-20T22:53:33.718Z,21.90
2023-06-20T22:58:38.389Z,15.93
2023-06-20T23:03:42.101Z,8.07
2023-06-20T23:08:45.860Z,10.90
2023-06-20T23:13:50.544Z,9.45
2023-06-20T23:18:55.350Z,10.52
2023-06-20T23:23:58.931Z,8.13
2023-06-20T23:29:04.576Z,7.78
2023-06-20T23:34:08.255Z,10.63
2023-06-20T23:39:11.810Z,6.30
2023-06-20T23:44:16.510Z,7.80
2023-06-20T23:49:19.939Z,9.05
2023-06-20T23:54:24.188Z,8.93
2023-06-20T23:59:28.854Z,9.27
